createdAt,value
2022-09-21T00:00:41.437Z,10
2022-09-21T00:05:53.908Z,9.98
2022-09-21T00:11:06.180Z,9.94
2022-09-21T00:16:18.821Z,9.89
2022-09-21T00:21:31.260Z,9.88
2022-09-21T00:26:43.670Z,9.87
2022-09-21T00:31:56.056Z,9.87
2022-09-21T00:37:08.579Z,9.87
2022-09-21T00:42:20.943Z,9.85
2022-09-21T00:47:33.180Z,9.86
2022-09-21T00:52:45.526Z,9.87
2022-09-21T01:03:10.226Z,9.83
2022-09-21T01:08:22.495Z,9.8
2022-09-21T01:13:34.751Z,9.77
2022-09-21T01:18:47.181Z,9.74
2022-09-21T01:23:59.492Z,9.73
2022-09-21T01:29:11.827Z,9.72
2022-09-21T01:34:23.986Z,9.71
2022-09-21T01:39:36.326Z,9.64
2022-09-21T01:44:48.603Z,9.59
2022-09-21T01:50:00.949Z,9.58
2022-09-21T01:55:13.609Z,9.54
2022-09-21T02:00:26.706Z,9.52
2022-09-21T02:05:39.029Z,9.54
2022-09-21T02:10:51.480Z,9.55
2022-09-21T02:16:03.827Z,9.57
2022-09-21T02:21:16.251Z,9.61
2022-09-21T02:26:28.552Z,9.59
2022-09-21T02:31:41.191Z,9.53
2022-09-21T02:36:53.484Z,9.45
2022-09-21T02:42:05.854Z,9.38
2022-09-21T02:47:18.044Z,9.31
2022-09-21T02:52:30.455Z,9.24
2022-09-21T02:57:43.207Z,9.2
2022-09-21T03:02:55.508Z,9.14
2022-09-21T03:08:07.815Z,9.09
2022-09-21T03:13:20.339Z,9.05
2022-09-21T03:18:32.698Z,9.06
2022-09-21T03:23:45.012Z,9.01
2022-09-21T03:28:57.628Z,9.01
2022-09-21T03:34:09.948Z,8.95
2022-09-21T03:39:22.486Z,8.89
2022-09-21T03:44:34.721Z,8.85
2022-09-21T03:49:46.997Z,8.84
2022-09-21T03:54:59.544Z,8.85
2022-09-21T04:00:11.786Z,8.85
2022-09-21T04:05:24.182Z,8.86
2022-09-21T04:10:36.601Z,8.89
2022-09-21T04:15:49.170Z,8.93
2022-09-21T04:21:01.356Z,8.92
2022-09-21T04:26:13.784Z,8.91
2022-09-21T04:31:26.433Z,8.95
2022-09-21T04:36:38.740Z,8.94
2022-09-21T04:41:51.142Z,8.91
2022-09-21T04:47:03.339Z,8.92
2022-09-21T04:52:18.943Z,8.9
2022-09-21T04:57:28.146Z,8.86
2022-09-21T05:02:40.691Z,8.77
2022-09-21T05:07:53.030Z,8.73
2022-09-21T05:13:05.273Z,8.7
2022-09-21T05:18:17.878Z,8.64
2022-09-21T05:23:30.058Z,8.62
2022-09-21T05:28:42.502Z,8.64
2022-09-21T05:33:54.964Z,8.71
2022-09-21T05:39:07.351Z,8.78
2022-09-21T05:44:19.780Z,8.84
2022-09-21T05:49:32.118Z,8.89
2022-09-21T05:54:44.616Z,8.94
2022-09-21T05:59:57.155Z,8.98
2022-09-21T06:05:09.600Z,9.02
2022-09-21T06:10:22.211Z,9.09
2022-09-21T06:15:34.526Z,9.13
2022-09-21T06:20:46.887Z,9.17
2022-09-21T06:25:59.184Z,9.21
2022-09-21T06:31:11.422Z,9.21
2022-09-21T06:36:23.826Z,9.24
2022-09-21T06:41:36.035Z,9.32
2022-09-21T06:46:48.449Z,9.45
2022-09-21T06:52:04.021Z,9.59
2022-09-21T06:57:16.377Z,9.77
2022-09-21T07:02:28.814Z,9.85
2022-09-21T07:07:41.342Z,9.97
2022-09-21T07:12:53.928Z,10.12
2022-09-21T07:18:06.360Z,10.23
2022-09-21T07:23:18.774Z,10.37
2022-09-21T07:28:31.046Z,10.46
2022-09-21T07:33:43.377Z,10.55
2022-09-21T07:38:55.822Z,10.57
2022-09-21T07:44:08.182Z,10.63
2022-09-21T07:49:20.738Z,10.69
2022-09-21T07:54:33.292Z,10.78
2022-09-21T07:59:45.695Z,10.95
2022-09-21T08:04:58.125Z,11.12
2022-09-21T08:10:10.267Z,11.26
2022-09-21T08:15:44.320Z,11.43
2022-09-21T08:20:35.210Z,11.61
2022-09-21T08:25:47.760Z,11.79
2022-09-21T08:31:00.407Z,11.92
2022-09-21T08:36:12.680Z,12.07
2022-09-21T08:41:25.236Z,12.26
2022-09-21T08:46:37.607Z,12.46
2022-09-21T08:51:50.276Z,12.64
2022-09-21T08:57:05.623Z,12.83
2022-09-21T09:02:15.344Z,13
2022-09-21T09:07:27.733Z,13.13
2022-09-21T09:17:53.131Z,13.36
2022-09-21T09:23:05.422Z,13.41
2022-09-21T09:28:17.849Z,13.52
2022-09-21T09:33:30.264Z,13.71
2022-09-21T09:38:42.499Z,13.99
2022-09-21T09:43:54.918Z,14.29
2022-09-21T09:49:07.431Z,14.7
2022-09-21T09:54:20.083Z,15.06
2022-09-21T09:59:32.717Z,15.42
2022-09-21T10:04:45.523Z,15.8
2022-09-21T10:09:57.967Z,16.19
2022-09-21T10:15:10.404Z,16.52
2022-09-21T10:20:22.856Z,16.66
2022-09-21T10:25:39.477Z,16.73
2022-09-21T10:30:47.608Z,16.82
2022-09-21T10:35:59.930Z,17.06
2022-09-21T10:41:12.242Z,17.05
2022-09-21T10:46:24.736Z,17.03
2022-09-21T10:51:36.998Z,17.08
2022-09-21T10:56:49.564Z,17.02
2022-09-21T11:02:01.891Z,17.25
2022-09-21T11:07:14.274Z,17.39
2022-09-21T11:12:26.484Z,17.09
2022-09-21T11:17:38.689Z,16.62
2022-09-21T11:22:54.233Z,16.79
2022-09-21T11:28:03.721Z,17.48
2022-09-21T11:33:16.184Z,17.98
2022-09-21T11:38:32.189Z,18.66
2022-09-21T11:43:41.245Z,19.02
2022-09-21T11:48:53.350Z,18.57
2022-09-21T11:54:05.592Z,18.18
2022-09-21T11:59:17.783Z,17.79
2022-09-21T12:04:29.970Z,17.63
2022-09-21T12:09:42.566Z,17.73
2022-09-21T12:14:54.806Z,18.06
2022-09-21T12:20:07.341Z,18.9
2022-09-21T12:25:19.910Z,19.43
2022-09-21T12:30:32.136Z,19.37
2022-09-21T12:35:44.450Z,19.14
2022-09-21T12:40:56.719Z,18.62
2022-09-21T12:46:09.093Z,18.38
2022-09-21T12:51:21.215Z,18.37
2022-09-21T12:56:33.774Z,18.78
2022-09-21T13:01:46.355Z,19.3
2022-09-21T13:06:58.889Z,20.05
2022-09-21T13:12:11.240Z,20.45
2022-09-21T13:17:23.356Z,20.02
2022-09-21T13:22:35.792Z,20.22
2022-09-21T13:27:48.214Z,20.24
2022-09-21T13:33:00.438Z,20.15
2022-09-21T13:38:12.655Z,19.8
2022-09-21T13:43:24.999Z,19.31
2022-09-21T13:48:37.104Z,18.94
2022-09-21T13:53:49.316Z,18.75
2022-09-21T13:59:01.738Z,18.67
2022-09-21T14:04:14.777Z,18.86
2022-09-21T14:09:27.509Z,19.77
2022-09-21T14:14:40.154Z,20.77
2022-09-21T14:19:52.881Z,21.57
2022-09-21T14:25:05.361Z,22.37
2022-09-21T14:30:17.854Z,23.15
2022-09-21T14:35:33.517Z,23.74
2022-09-21T14:40:42.662Z,23.52
2022-09-21T14:45:55.030Z,23.38
2022-09-21T14:51:07.418Z,23.44
2022-09-21T14:56:19.742Z,23.22
2022-09-21T15:01:31.793Z,22.61
2022-09-21T15:06:43.926Z,22.08
2022-09-21T15:11:55.998Z,21.54
2022-09-21T15:17:08.255Z,21
2022-09-21T15:22:20.948Z,21.59
2022-09-21T15:27:33.792Z,22.23
2022-09-21T15:32:46.127Z,22.68
2022-09-21T15:37:58.734Z,22.34
2022-09-21T15:43:11.054Z,21.68
2022-09-21T15:48:23.418Z,21.1
2022-09-21T15:53:35.813Z,21.16
2022-09-21T15:58:48.545Z,21.93
2022-09-21T16:04:01.258Z,22.88
2022-09-21T16:09:13.705Z,23.72
2022-09-21T16:14:26.455Z,24.28
2022-09-21T16:19:39.005Z,24.75
2022-09-21T16:24:51.400Z,24.92
2022-09-21T16:30:03.804Z,25.01
2022-09-21T16:35:16.576Z,25.18
2022-09-21T16:40:28.913Z,25.06
2022-09-21T16:45:40.991Z,24.63
2022-09-21T16:50:53.765Z,24.21
2022-09-21T16:56:06.146Z,23.78
2022-09-21T17:01:18.109Z,22.85
2022-09-21T17:06:30.311Z,21.78
2022-09-21T17:11:42.700Z,20.94
2022-09-21T17:16:55.039Z,20.23
2022-09-21T17:22:07.275Z,19.65
2022-09-21T17:27:19.471Z,19.16
2022-09-21T17:32:35.236Z,18.75
2022-09-21T17:37:44.047Z,18.37
2022-09-21T17:42:56.235Z,18.06
2022-09-21T17:48:08.745Z,17.86
2022-09-21T17:53:21.120Z,17.65
2022-09-21T17:58:33.413Z,17.44
2022-09-21T18:03:45.834Z,17.25
2022-09-21T18:08:58.259Z,17.08
2022-09-21T18:14:10.495Z,16.93
2022-09-21T18:19:23.104Z,16.79
2022-09-21T18:24:35.662Z,16.65
2022-09-21T18:29:47.719Z,16.5
2022-09-21T18:34:59.975Z,16.33
2022-09-21T18:40:12.439Z,16.19
2022-09-21T18:45:24.751Z,16.04
2022-09-21T18:50:36.862Z,15.89
2022-09-21T18:55:49.315Z,15.8
2022-09-21T19:01:02.014Z,15.74
2022-09-21T19:06:14.342Z,15.7
2022-09-21T19:11:26.663Z,15.66
2022-09-21T19:16:39.201Z,15.61
2022-09-21T19:21:51.713Z,15.55
2022-09-21T19:27:03.943Z,15.48
2022-09-21T19:32:16.468Z,15.46
2022-09-21T19:37:29.096Z,15.45
2022-09-21T19:42:41.454Z,15.38
2022-09-21T19:47:53.647Z,15.24
2022-09-21T19:53:06.057Z,15.06
2022-09-21T19:58:18.409Z,15.02
2022-09-21T20:03:31.634Z,15.02
2022-09-21T20:08:43.098Z,15.03
2022-09-21T20:13:55.376Z,15.05
2022-09-21T20:19:07.620Z,15.09
2022-09-21T20:24:20.196Z,15.07
2022-09-21T20:29:32.696Z,15.02
2022-09-21T20:34:44.717Z,14.89
2022-09-21T20:39:57.048Z,14.69
2022-09-21T20:45:09.343Z,14.48
2022-09-21T20:50:21.496Z,14.33
2022-09-21T20:55:34.274Z,14.18
2022-09-21T21:00:46.384Z,14
2022-09-21T21:05:58.694Z,13.88
2022-09-21T21:11:10.865Z,13.83
2022-09-21T21:16:23.337Z,13.84
2022-09-21T21:21:35.783Z,13.88
2022-09-21T21:27:01.627Z,13.88
2022-09-21T21:32:00.579Z,13.83
2022-09-21T21:37:12.838Z,13.76
2022-09-21T21:42:25.259Z,13.67
2022-09-21T21:47:40.122Z,13.59
2022-09-21T21:52:49.933Z,13.54
2022-09-21T21:58:02.256Z,13.46
2022-09-21T22:03:14.673Z,13.41
2022-09-21T22:08:27.192Z,13.36
2022-09-21T22:13:39.706Z,13.4
2022-09-21T22:18:52.161Z,13.44
2022-09-21T22:24:04.433Z,13.4
2022-09-21T22:29:16.785Z,13.35
2022-09-21T22:34:29.080Z,13.3
2022-09-21T22:39:41.450Z,13.26
2022-09-21T22:44:54.159Z,13.2
2022-09-21T22:50:06.513Z,13.12
2022-09-21T22:55:18.821Z,13.04
2022-09-21T23:00:31.144Z,13
2022-09-21T23:05:43.557Z,12.99
2022-09-21T23:10:56.047Z,13.01
2022-09-21T23:16:08.568Z,13.06
2022-09-21T23:21:20.933Z,13.09
2022-09-21T23:26:33.366Z,13.12
2022-09-21T23:31:46.473Z,13.12
2022-09-21T23:36:58.484Z,13.13
2022-09-21T23:42:10.756Z,13.1
2022-09-21T23:47:23.355Z,13.06
2022-09-21T23:52:35.906Z,12.99
2022-09-21T23:57:48.238Z,12.88
